sensor_id;sensor_type;location;lat;lon;timestamp;P1;durP1;ratioP1;P2;durP2;ratioP2
8139;SDS011;4111;50.972;7.072;2022-11-15T00:02:11;8.27;;;6.30;;
8139;SDS011;4111;50.972;7.072;2022-11-15T00:04:37;6.43;;;5.83;;
8139;SDS011;4111;50.972;7.072;2022-11-15T00:07:04;7.47;;;6.47;;
8139;SDS011;4111;50.972;7.072;2022-11-15T00:09:31;7.43;;;5.97;;
8139;SDS011;4111;50.972;7.072;2022-11-15T00:11:57;7.87;;;6.57;;
8139;SDS011;4111;50.972;7.072;2022-11-15T00:14:23;7.07;;;6.37;;
8139;SDS011;4111;50.972;7.072;2022-11-15T00:16:50;7.50;;;6.40;;
8139;SDS011;4111;50.972;7.072;2022-11-15T00:19:16;6.80;;;5.77;;
8139;SDS011;4111;50.972;7.072;2022-11-15T00:21:42;7.07;;;5.77;;
8139;SDS011;4111;50.972;7.072;2022-11-15T00:24:09;8.77;;;6.13;;
8139;SDS011;4111;50.972;7.072;2022-11-15T00:26:35;7.90;;;6.00;;
8139;SDS011;4111;50.972;7.072;2022-11-15T00:29:02;6.90;;;6.20;;
8139;SDS011;4111;50.972;7.072;2022-11-15T00:31:28;9.20;;;5.80;;
8139;SDS011;4111;50.972;7.072;2022-11-15T00:33:54;6.53;;;5.53;;
8139;SDS011;4111;50.972;7.072;2022-11-15T00:36:21;6.53;;;5.50;;
8139;SDS011;4111;50.972;7.072;2022-11-15T00:38:47;10.63;;;5.47;;
8139;SDS011;4111;50.972;7.072;2022-11-15T00:41:14;6.07;;;5.47;;
8139;SDS011;4111;50.972;7.072;2022-11-15T00:43:40;6.27;;;5.63;;
8139;SDS011;4111;50.972;7.072;2022-11-15T00:46:09;6.87;;;5.17;;
8139;SDS011;4111;50.972;7.072;2022-11-15T00:48:36;9.47;;;5.87;;
8139;SDS011;4111;50.972;7.072;2022-11-15T00:51:03;8.03;;;5.63;;
8139;SDS011;4111;50.972;7.072;2022-11-15T00:53:30;9.07;;;5.57;;
8139;SDS011;4111;50.972;7.072;2022-11-15T00:55:57;6.87;;;5.33;;
8139;SDS011;4111;50.972;7.072;2022-11-15T00:58:23;8.73;;;5.60;;
8139;SDS011;4111;50.972;7.072;2022-11-15T01:00:49;6.13;;;5.30;;
8139;SDS011;4111;50.972;7.072;2022-11-15T01:03:16;7.90;;;5.27;;
8139;SDS011;4111;50.972;7.072;2022-11-15T01:05:42;8.57;;;5.20;;
8139;SDS011;4111;50.972;7.072;2022-11-15T01:08:11;6.73;;;5.53;;
8139;SDS011;4111;50.972;7.072;2022-11-15T01:10:39;8.77;;;5.60;;
8139;SDS011;4111;50.972;7.072;2022-11-15T01:13:06;8.47;;;5.50;;
8139;SDS011;4111;50.972;7.072;2022-11-15T01:15:33;7.13;;;6.07;;
8139;SDS011;4111;50.972;7.072;2022-11-15T01:17:59;6.30;;;5.70;;
8139;SDS011;4111;50.972;7.072;2022-11-15T01:20:25;8.67;;;5.70;;
8139;SDS011;4111;50.972;7.072;2022-11-15T01:22:52;7.03;;;5.27;;
8139;SDS011;4111;50.972;7.072;2022-11-15T01:25:18;9.13;;;5.83;;
8139;SDS011;4111;50.972;7.072;2022-11-15T01:27:45;8.67;;;5.47;;
8139;SDS011;4111;50.972;7.072;2022-11-15T01:30:11;7.80;;;5.93;;
8139;SDS011;4111;50.972;7.072;2022-11-15T01:32:38;5.67;;;5.03;;
8139;SDS011;4111;50.972;7.072;2022-11-15T01:35:04;8.83;;;5.90;;
8139;SDS011;4111;50.972;7.072;2022-11-15T01:37:31;5.63;;;5.13;;
8139;SDS011;4111;50.972;7.072;2022-11-15T01:39:57;6.53;;;5.17;;
8139;SDS011;4111;50.972;7.072;2022-11-15T01:42:23;8.13;;;6.13;;
8139;SDS011;4111;50.972;7.072;2022-11-15T01:44:50;8.90;;;5.70;;
8139;SDS011;4111;50.972;7.072;2022-11-15T01:47:31;7.47;;;5.90;;
8139;SDS011;4111;50.972;7.072;2022-11-15T01:50:10;9.00;;;5.67;;
8139;SDS011;4111;50.972;7.072;2022-11-15T01:52:40;6.00;;;5.40;;
8139;SDS011;4111;50.972;7.072;2022-11-15T01:55:09;12.03;;;5.27;;
8139;SDS011;4111;50.972;7.072;2022-11-15T01:57:39;8.60;;;5.97;;
8139;SDS011;4111;50.972;7.072;2022-11-15T02:00:08;8.17;;;5.73;;
8139;SDS011;4111;50.972;7.072;2022-11-15T02:02:36;8.30;;;5.50;;
8139;SDS011;4111;50.972;7.072;2022-11-15T02:05:03;7.37;;;5.53;;
8139;SDS011;4111;50.972;7.072;2022-11-15T02:07:30;6.57;;;5.00;;
8139;SDS011;4111;50.972;7.072;2022-11-15T02:09:59;6.57;;;5.47;;
8139;SDS011;4111;50.972;7.072;2022-11-15T02:12:32;10.37;;;5.93;;
8139;SDS011;4111;50.972;7.072;2022-11-15T02:14:59;6.40;;;5.80;;
8139;SDS011;4111;50.972;7.072;2022-11-15T02:17:41;6.50;;;5.57;;
8139;SDS011;4111;50.972;7.072;2022-11-15T02:28:35;6.73;;;5.47;;
8139;SDS011;4111;50.972;7.072;2022-11-15T02:31:14;8.50;;;5.90;;
8139;SDS011;4111;50.972;7.072;2022-11-15T02:33:53;8.63;;;5.60;;
8139;SDS011;4111;50.972;7.072;2022-11-15T02:36:47;7.77;;;5.90;;
8139;SDS011;4111;50.972;7.072;2022-11-15T02:39:29;6.23;;;5.50;;
8139;SDS011;4111;50.972;7.072;2022-11-15T02:41:58;6.10;;;5.30;;
8139;SDS011;4111;50.972;7.072;2022-11-15T02:44:53;6.87;;;5.43;;
8139;SDS011;4111;50.972;7.072;2022-11-15T02:47:23;6.20;;;5.10;;
8139;SDS011;4111;50.972;7.072;2022-11-15T02:49:53;6.30;;;4.63;;
8139;SDS011;4111;50.972;7.072;2022-11-15T02:52:23;5.07;;;4.57;;
8139;SDS011;4111;50.972;7.072;2022-11-15T02:54:54;5.00;;;4.50;;
8139;SDS011;4111;50.972;7.072;2022-11-15T03:03:06;5.37;;;4.87;;
8139;SDS011;4111;50.972;7.072;2022-11-15T03:05:44;5.97;;;4.93;;
8139;SDS011;4111;50.972;7.072;2022-11-15T03:08:32;4.57;;;4.07;;
8139;SDS011;4111;50.972;7.072;2022-11-15T03:11:10;5.63;;;4.40;;
8139;SDS011;4111;50.972;7.072;2022-11-15T03:19:29;6.50;;;4.97;;
8139;SDS011;4111;50.972;7.072;2022-11-15T03:21:50;7.13;;;4.77;;
8139;SDS011;4111;50.972;7.072;2022-11-15T03:24:18;4.73;;;4.10;;
8139;SDS011;4111;50.972;7.072;2022-11-15T03:26:51;5.10;;;4.33;;
8139;SDS011;4111;50.972;7.072;2022-11-15T03:29:22;4.77;;;4.27;;
8139;SDS011;4111;50.972;7.072;2022-11-15T03:31:55;5.00;;;4.33;;
8139;SDS011;4111;50.972;7.072;2022-11-15T03:37:01;7.87;;;4.60;;
8139;SDS011;4111;50.972;7.072;2022-11-15T03:39:27;4.80;;;4.30;;
8139;SDS011;4111;50.972;7.072;2022-11-15T03:49:46;5.07;;;4.17;;
8139;SDS011;4111;50.972;7.072;2022-11-15T03:52:17;5.77;;;4.30;;
8139;SDS011;4111;50.972;7.072;2022-11-15T03:54:52;4.70;;;4.30;;
8139;SDS011;4111;50.972;7.072;2022-11-15T03:57:21;5.63;;;4.57;;
8139;SDS011;4111;50.972;7.072;2022-11-15T03:59:48;5.90;;;4.67;;
8139;SDS011;4111;50.972;7.072;2022-11-15T04:02:15;4.90;;;4.40;;
8139;SDS011;4111;50.972;7.072;2022-11-15T04:04:41;4.70;;;4.33;;
8139;SDS011;4111;50.972;7.072;2022-11-15T04:07:08;5.13;;;4.67;;
8139;SDS011;4111;50.972;7.072;2022-11-15T04:09:35;5.60;;;4.90;;
8139;SDS011;4111;50.972;7.072;2022-11-15T04:12:21;5.17;;;4.67;;
8139;SDS011;4111;50.972;7.072;2022-11-15T04:15:15;6.13;;;5.60;;
8139;SDS011;4111;50.972;7.072;2022-11-15T04:17:45;5.17;;;4.70;;
8139;SDS011;4111;50.972;7.072;2022-11-15T04:20:28;5.27;;;4.80;;
8139;SDS011;4111;50.972;7.072;2022-11-15T04:26:01;5.37;;;4.77;;
8139;SDS011;4111;50.972;7.072;2022-11-15T04:28:30;5.73;;;5.23;;
8139;SDS011;4111;50.972;7.072;2022-11-15T04:30:56;7.10;;;5.00;;
8139;SDS011;4111;50.972;7.072;2022-11-15T04:33:23;5.17;;;4.77;;
8139;SDS011;4111;50.972;7.072;2022-11-15T04:35:49;4.97;;;4.50;;
8139;SDS011;4111;50.972;7.072;2022-11-15T04:38:34;4.87;;;4.47;;
8139;SDS011;4111;50.972;7.072;2022-11-15T04:41:02;7.63;;;4.93;;
8139;SDS011;4111;50.972;7.072;2022-11-15T04:43:28;5.00;;;4.60;;
8139;SDS011;4111;50.972;7.072;2022-11-15T04:45:56;5.53;;;5.00;;
8139;SDS011;4111;50.972;7.072;2022-11-15T04:48:22;5.10;;;4.70;;
8139;SDS011;4111;50.972;7.072;2022-11-15T04:50:49;5.07;;;4.67;;
8139;SDS011;4111;50.972;7.072;2022-11-15T04:53:15;5.33;;;4.60;;
8139;SDS011;4111;50.972;7.072;2022-11-15T04:55:44;4.80;;;4.40;;
8139;SDS011;4111;50.972;7.072;2022-11-15T04:58:13;5.00;;;4.60;;
8139;SDS011;4111;50.972;7.072;2022-11-15T05:00:39;4.50;;;4.20;;
8139;SDS011;4111;50.972;7.072;2022-11-15T05:03:06;4.63;;;4.23;;
8139;SDS011;4111;50.972;7.072;2022-11-15T05:05:53;5.30;;;4.77;;
8139;SDS011;4111;50.972;7.072;2022-11-15T05:08:20;5.17;;;4.63;;
8139;SDS011;4111;50.972;7.072;2022-11-15T05:10:47;5.20;;;4.80;;
8139;SDS011;4111;50.972;7.072;2022-11-15T05:13:13;5.10;;;4.70;;
8139;SDS011;4111;50.972;7.072;2022-11-15T05:15:40;4.93;;;4.20;;
8139;SDS011;4111;50.972;7.072;2022-11-15T05:18:07;5.00;;;4.47;;
8139;SDS011;4111;50.972;7.072;2022-11-15T05:20:33;5.00;;;4.57;;
8139;SDS011;4111;50.972;7.072;2022-11-15T05:23:00;4.33;;;3.93;;
8139;SDS011;4111;50.972;7.072;2022-11-15T05:25:26;4.53;;;4.13;;
8139;SDS011;4111;50.972;7.072;2022-11-15T05:27:53;3.97;;;3.67;;
8139;SDS011;4111;50.972;7.072;2022-11-15T05:30:20;4.30;;;3.90;;
8139;SDS011;4111;50.972;7.072;2022-11-15T05:32:46;4.37;;;4.07;;
8139;SDS011;4111;50.972;7.072;2022-11-15T05:35:21;4.30;;;4.00;;
8139;SDS011;4111;50.972;7.072;2022-11-15T05:38:08;3.60;;;3.30;;
8139;SDS011;4111;50.972;7.072;2022-11-15T05:40:34;4.27;;;3.30;;
8139;SDS011;4111;50.972;7.072;2022-11-15T05:43:01;4.43;;;3.50;;
8139;SDS011;4111;50.972;7.072;2022-11-15T05:45:31;3.90;;;3.60;;
8139;SDS011;4111;50.972;7.072;2022-11-15T05:47:59;4.10;;;3.80;;
8139;SDS011;4111;50.972;7.072;2022-11-15T05:50:30;4.30;;;4.00;;
8139;SDS011;4111;50.972;7.072;2022-11-15T05:52:57;4.50;;;4.10;;
8139;SDS011;4111;50.972;7.072;2022-11-15T05:55:30;3.80;;;3.60;;
8139;SDS011;4111;50.972;7.072;2022-11-15T05:57:57;4.03;;;3.63;;
8139;SDS011;4111;50.972;7.072;2022-11-15T06:00:23;3.90;;;3.60;;
8139;SDS011;4111;50.972;7.072;2022-11-15T06:02:50;4.30;;;3.50;;
8139;SDS011;4111;50.972;7.072;2022-11-15T06:05:16;2.90;;;2.70;;
8139;SDS011;4111;50.972;7.072;2022-11-15T06:07:42;3.60;;;3.30;;
8139;SDS011;4111;50.972;7.072;2022-11-15T06:10:10;3.40;;;3.10;;
8139;SDS011;4111;50.972;7.072;2022-11-15T06:12:36;2.73;;;2.63;;
8139;SDS011;4111;50.972;7.072;2022-11-15T06:15:03;3.73;;;2.97;;
8139;SDS011;4111;50.972;7.072;2022-11-15T06:17:30;4.60;;;2.67;;
8139;SDS011;4111;50.972;7.072;2022-11-15T06:19:56;3.77;;;2.50;;
8139;SDS011;4111;50.972;7.072;2022-11-15T06:22:23;2.83;;;2.60;;
8139;SDS011;4111;50.972;7.072;2022-11-15T06:24:49;3.30;;;3.00;;
8139;SDS011;4111;50.972;7.072;2022-11-15T06:27:15;3.60;;;3.20;;
8139;SDS011;4111;50.972;7.072;2022-11-15T06:29:42;4.70;;;3.10;;
8139;SDS011;4111;50.972;7.072;2022-11-15T06:32:08;3.10;;;2.80;;
8139;SDS011;4111;50.972;7.072;2022-11-15T06:34:35;5.77;;;3.20;;
8139;SDS011;4111;50.972;7.072;2022-11-15T06:37:03;3.43;;;3.13;;
8139;SDS011;4111;50.972;7.072;2022-11-15T06:39:29;3.70;;;3.30;;
8139;SDS011;4111;50.972;7.072;2022-11-15T06:41:55;2.93;;;2.70;;
8139;SDS011;4111;50.972;7.072;2022-11-15T06:44:22;3.73;;;3.03;;
8139;SDS011;4111;50.972;7.072;2022-11-15T06:46:48;3.80;;;3.40;;
8139;SDS011;4111;50.972;7.072;2022-11-15T06:49:14;3.17;;;2.87;;
8139;SDS011;4111;50.972;7.072;2022-11-15T06:51:41;3.77;;;3.20;;
8139;SDS011;4111;50.972;7.072;2022-11-15T06:54:07;3.37;;;3.07;;
8139;SDS011;4111;50.972;7.072;2022-11-15T06:56:33;3.43;;;2.90;;
8139;SDS011;4111;50.972;7.072;2022-11-15T06:59:00;4.07;;;3.20;;
8139;SDS011;4111;50.972;7.072;2022-11-15T07:01:26;3.37;;;3.07;;
8139;SDS011;4111;50.972;7.072;2022-11-15T07:03:53;4.50;;;2.70;;
8139;SDS011;4111;50.972;7.072;2022-11-15T07:06:19;4.03;;;2.83;;
8139;SDS011;4111;50.972;7.072;2022-11-15T07:08:45;3.10;;;2.90;;
8139;SDS011;4111;50.972;7.072;2022-11-15T07:11:12;4.43;;;2.97;;
8139;SDS011;4111;50.972;7.072;2022-11-15T07:13:38;3.10;;;2.80;;
8139;SDS011;4111;50.972;7.072;2022-11-15T07:16:05;3.43;;;2.87;;
8139;SDS011;4111;50.972;7.072;2022-11-15T07:18:34;3.20;;;3.00;;
8139;SDS011;4111;50.972;7.072;2022-11-15T07:21:05;4.43;;;2.70;;
8139;SDS011;4111;50.972;7.072;2022-11-15T07:23:35;2.73;;;2.53;;
8139;SDS011;4111;50.972;7.072;2022-11-15T07:26:03;3.90;;;2.57;;
8139;SDS011;4111;50.972;7.072;2022-11-15T07:28:29;3.53;;;2.50;;
8139;SDS011;4111;50.972;7.072;2022-11-15T07:30:56;2.80;;;2.57;;
8139;SDS011;4111;50.972;7.072;2022-11-15T07:33:22;2.60;;;2.40;;
8139;SDS011;4111;50.972;7.072;2022-11-15T07:35:49;2.50;;;2.40;;
8139;SDS011;4111;50.972;7.072;2022-11-15T07:38:15;2.50;;;2.40;;
8139;SDS011;4111;50.972;7.072;2022-11-15T07:40:45;2.57;;;2.30;;
8139;SDS011;4111;50.972;7.072;2022-11-15T07:43:12;2.50;;;2.30;;
8139;SDS011;4111;50.972;7.072;2022-11-15T07:45:43;3.73;;;3.00;;
8139;SDS011;4111;50.972;7.072;2022-11-15T07:48:10;2.67;;;2.37;;
8139;SDS011;4111;50.972;7.072;2022-11-15T07:50:37;3.30;;;2.37;;
8139;SDS011;4111;50.972;7.072;2022-11-15T07:53:07;3.07;;;2.10;;
8139;SDS011;4111;50.972;7.072;2022-11-15T07:55:34;2.23;;;1.90;;
8139;SDS011;4111;50.972;7.072;2022-11-15T07:58:02;4.60;;;2.23;;
8139;SDS011;4111;50.972;7.072;2022-11-15T08:00:33;2.40;;;2.20;;
8139;SDS011;4111;50.972;7.072;2022-11-15T08:03:05;2.40;;;2.30;;
8139;SDS011;4111;50.972;7.072;2022-11-15T08:05:33;3.53;;;1.80;;
8139;SDS011;4111;50.972;7.072;2022-11-15T08:08:00;2.73;;;2.40;;
8139;SDS011;4111;50.972;7.072;2022-11-15T08:10:27;2.40;;;2.20;;
8139;SDS011;4111;50.972;7.072;2022-11-15T08:12:57;2.50;;;2.30;;
8139;SDS011;4111;50.972;7.072;2022-11-15T08:15:30;2.23;;;2.03;;
8139;SDS011;4111;50.972;7.072;2022-11-15T08:17:57;2.00;;;1.90;;
8139;SDS011;4111;50.972;7.072;2022-11-15T08:20:26;3.47;;;2.30;;
8139;SDS011;4111;50.972;7.072;2022-11-15T08:22:56;3.10;;;2.20;;
8139;SDS011;4111;50.972;7.072;2022-11-15T08:25:23;2.60;;;2.10;;
8139;SDS011;4111;50.972;7.072;2022-11-15T08:27:52;2.33;;;2.10;;
8139;SDS011;4111;50.972;7.072;2022-11-15T08:30:20;2.30;;;2.10;;
8139;SDS011;4111;50.972;7.072;2022-11-15T08:32:47;1.93;;;1.83;;
8139;SDS011;4111;50.972;7.072;2022-11-15T08:35:14;2.03;;;1.80;;
8139;SDS011;4111;50.972;7.072;2022-11-15T08:37:40;2.30;;;2.10;;
8139;SDS011;4111;50.972;7.072;2022-11-15T08:40:07;1.90;;;1.80;;
8139;SDS011;4111;50.972;7.072;2022-11-15T08:42:34;3.43;;;1.67;;
8139;SDS011;4111;50.972;7.072;2022-11-15T08:45:00;2.83;;;2.00;;
8139;SDS011;4111;50.972;7.072;2022-11-15T08:47:26;1.63;;;1.50;;
8139;SDS011;4111;50.972;7.072;2022-11-15T08:49:53;1.60;;;1.50;;
8139;SDS011;4111;50.972;7.072;2022-11-15T08:52:19;1.37;;;1.37;;
8139;SDS011;4111;50.972;7.072;2022-11-15T08:54:46;1.67;;;1.57;;
8139;SDS011;4111;50.972;7.072;2022-11-15T08:57:12;2.13;;;1.70;;
8139;SDS011;4111;50.972;7.072;2022-11-15T08:59:39;3.37;;;1.83;;
8139;SDS011;4111;50.972;7.072;2022-11-15T09:02:05;2.77;;;1.97;;
8139;SDS011;4111;50.972;7.072;2022-11-15T09:04:32;4.43;;;2.00;;
8139;SDS011;4111;50.972;7.072;2022-11-15T09:06:58;2.00;;;1.90;;
8139;SDS011;4111;50.972;7.072;2022-11-15T09:09:25;3.30;;;2.00;;
8139;SDS011;4111;50.972;7.072;2022-11-15T09:11:51;2.87;;;1.97;;
8139;SDS011;4111;50.972;7.072;2022-11-15T09:14:23;3.90;;;1.83;;
8139;SDS011;4111;50.972;7.072;2022-11-15T09:16:49;2.10;;;1.70;;
8139;SDS011;4111;50.972;7.072;2022-11-15T09:19:15;4.07;;;2.17;;
8139;SDS011;4111;50.972;7.072;2022-11-15T09:21:42;1.83;;;1.70;;
8139;SDS011;4111;50.972;7.072;2022-11-15T09:24:08;2.10;;;1.80;;
8139;SDS011;4111;50.972;7.072;2022-11-15T09:26:35;1.83;;;1.67;;
8139;SDS011;4111;50.972;7.072;2022-11-15T09:29:01;5.70;;;1.60;;
8139;SDS011;4111;50.972;7.072;2022-11-15T09:31:45;1.87;;;1.60;;
8139;SDS011;4111;50.972;7.072;2022-11-15T09:34:12;2.63;;;2.40;;
8139;SDS011;4111;50.972;7.072;2022-11-15T09:36:38;1.80;;;1.70;;
8139;SDS011;4111;50.972;7.072;2022-11-15T09:39:04;1.70;;;1.60;;
8139;SDS011;4111;50.972;7.072;2022-11-15T09:44:09;2.40;;;1.30;;
8139;SDS011;4111;50.972;7.072;2022-11-15T09:50:09;2.07;;;1.60;;
8139;SDS011;4111;50.972;7.072;2022-11-15T09:52:39;2.43;;;1.60;;
8139;SDS011;4111;50.972;7.072;2022-11-15T09:55:09;3.50;;;2.30;;
8139;SDS011;4111;50.972;7.072;2022-11-15T09:58:00;2.20;;;1.60;;
8139;SDS011;4111;50.972;7.072;2022-11-15T10:00:51;1.63;;;1.40;;
8139;SDS011;4111;50.972;7.072;2022-11-15T10:06:03;2.27;;;2.03;;
8139;SDS011;4111;50.972;7.072;2022-11-15T10:08:43;1.47;;;1.30;;
8139;SDS011;4111;50.972;7.072;2022-11-15T10:11:19;1.73;;;1.30;;
8139;SDS011;4111;50.972;7.072;2022-11-15T10:14:11;1.60;;;1.27;;
8139;SDS011;4111;50.972;7.072;2022-11-15T10:22:45;2.97;;;1.27;;
8139;SDS011;4111;50.972;7.072;2022-11-15T10:25:32;1.57;;;1.23;;
8139;SDS011;4111;50.972;7.072;2022-11-15T10:28:09;3.37;;;1.50;;
8139;SDS011;4111;50.972;7.072;2022-11-15T10:30:41;1.80;;;1.70;;
8139;SDS011;4111;50.972;7.072;2022-11-15T10:33:18;2.70;;;1.33;;
8139;SDS011;4111;50.972;7.072;2022-11-15T10:41:29;1.97;;;1.30;;
8139;SDS011;4111;50.972;7.072;2022-11-15T10:46:33;1.97;;;1.10;;
8139;SDS011;4111;50.972;7.072;2022-11-15T10:49:17;0.97;;;0.90;;
8139;SDS011;4111;50.972;7.072;2022-11-15T10:51:48;1.53;;;1.00;;
8139;SDS011;4111;50.972;7.072;2022-11-15T10:54:23;2.40;;;1.10;;
8139;SDS011;4111;50.972;7.072;2022-11-15T10:56:54;1.83;;;1.10;;
8139;SDS011;4111;50.972;7.072;2022-11-15T10:59:24;1.60;;;0.70;;
8139;SDS011;4111;50.972;7.072;2022-11-15T11:01:54;1.70;;;1.10;;
8139;SDS011;4111;50.972;7.072;2022-11-15T11:04:21;1.77;;;1.07;;
8139;SDS011;4111;50.972;7.072;2022-11-15T11:06:58;1.10;;;0.70;;
8139;SDS011;4111;50.972;7.072;2022-11-15T11:09:32;2.23;;;1.17;;
8139;SDS011;4111;50.972;7.072;2022-11-15T11:12:02;3.63;;;1.17;;
8139;SDS011;4111;50.972;7.072;2022-11-15T11:14:35;1.53;;;0.93;;
8139;SDS011;4111;50.972;7.072;2022-11-15T11:20:36;0.97;;;0.87;;
8139;SDS011;4111;50.972;7.072;2022-11-15T11:25:44;1.77;;;1.10;;
8139;SDS011;4111;50.972;7.072;2022-11-15T11:28:34;1.07;;;0.93;;
8139;SDS011;4111;50.972;7.072;2022-11-15T11:31:20;2.03;;;1.03;;
8139;SDS011;4111;50.972;7.072;2022-11-15T11:39:14;0.90;;;0.90;;
8139;SDS011;4111;50.972;7.072;2022-11-15T11:41:55;2.13;;;1.20;;
8139;SDS011;4111;50.972;7.072;2022-11-15T11:47:15;0.90;;;0.90;;
8139;SDS011;4111;50.972;7.072;2022-11-15T11:49:45;0.87;;;0.87;;
8139;SDS011;4111;50.972;7.072;2022-11-15T11:52:42;5.43;;;1.40;;
8139;SDS011;4111;50.972;7.072;2022-11-15T11:55:29;1.07;;;0.90;;
8139;SDS011;4111;50.972;7.072;2022-11-15T11:58:11;1.33;;;0.90;;
8139;SDS011;4111;50.972;7.072;2022-11-15T12:00:56;2.63;;;0.87;;
8139;SDS011;4111;50.972;7.072;2022-11-15T12:06:23;1.37;;;1.10;;
8139;SDS011;4111;50.972;7.072;2022-11-15T12:08:53;3.17;;;1.07;;
8139;SDS011;4111;50.972;7.072;2022-11-15T12:14:21;2.03;;;1.20;;
8139;SDS011;4111;50.972;7.072;2022-11-15T12:16:53;2.50;;;1.00;;
8139;SDS011;4111;50.972;7.072;2022-11-15T12:19:19;3.17;;;1.37;;
8139;SDS011;4111;50.972;7.072;2022-11-15T12:21:47;1.93;;;1.00;;
8139;SDS011;4111;50.972;7.072;2022-11-15T12:24:30;2.90;;;1.30;;
8139;SDS011;4111;50.972;7.072;2022-11-15T12:27:06;3.30;;;0.90;;
8139;SDS011;4111;50.972;7.072;2022-11-15T12:29:49;2.53;;;1.53;;
8139;SDS011;4111;50.972;7.072;2022-11-15T12:32:24;1.77;;;1.00;;
8139;SDS011;4111;50.972;7.072;2022-11-15T12:34:56;2.50;;;1.20;;
8139;SDS011;4111;50.972;7.072;2022-11-15T12:42:42;2.27;;;1.20;;
8139;SDS011;4111;50.972;7.072;2022-11-15T12:45:35;3.83;;;1.00;;
8139;SDS011;4111;50.972;7.072;2022-11-15T12:58:45;1.17;;;1.07;;
8139;SDS011;4111;50.972;7.072;2022-11-15T13:04:30;1.97;;;1.00;;
8139;SDS011;4111;50.972;7.072;2022-11-15T13:12:04;5.93;;;1.30;;
8139;SDS011;4111;50.972;7.072;2022-11-15T13:19:57;1.40;;;1.30;;
8139;SDS011;4111;50.972;7.072;2022-11-15T13:28:39;1.53;;;1.30;;
8139;SDS011;4111;50.972;7.072;2022-11-15T13:31:19;1.67;;;1.40;;
8139;SDS011;4111;50.972;7.072;2022-11-15T13:33:53;2.30;;;1.87;;
8139;SDS011;4111;50.972;7.072;2022-11-15T13:36:23;2.43;;;2.23;;
8139;SDS011;4111;50.972;7.072;2022-11-15T13:38:58;2.60;;;2.07;;
8139;SDS011;4111;50.972;7.072;2022-11-15T13:41:31;3.80;;;1.77;;
8139;SDS011;4111;50.972;7.072;2022-11-15T13:44:02;4.27;;;1.90;;
8139;SDS011;4111;50.972;7.072;2022-11-15T13:46:30;5.27;;;2.20;;
8139;SDS011;4111;50.972;7.072;2022-11-15T13:49:00;1.67;;;1.57;;
8139;SDS011;4111;50.972;7.072;2022-11-15T13:53:57;2.87;;;1.80;;
8139;SDS011;4111;50.972;7.072;2022-11-15T13:56:27;2.13;;;1.70;;
8139;SDS011;4111;50.972;7.072;2022-11-15T13:58:57;4.77;;;1.67;;
8139;SDS011;4111;50.972;7.072;2022-11-15T14:01:23;2.30;;;1.93;;
8139;SDS011;4111;50.972;7.072;2022-11-15T14:03:55;2.50;;;1.87;;
8139;SDS011;4111;50.972;7.072;2022-11-15T14:06:25;3.73;;;1.87;;
8139;SDS011;4111;50.972;7.072;2022-11-15T14:11:35;2.67;;;1.70;;
8139;SDS011;4111;50.972;7.072;2022-11-15T14:16:38;1.93;;;1.60;;
8139;SDS011;4111;50.972;7.072;2022-11-15T14:19:09;1.83;;;1.73;;
8139;SDS011;4111;50.972;7.072;2022-11-15T14:24:35;2.63;;;1.80;;
8139;SDS011;4111;50.972;7.072;2022-11-15T14:27:19;3.33;;;1.70;;
8139;SDS011;4111;50.972;7.072;2022-11-15T14:29:46;2.07;;;1.80;;
8139;SDS011;4111;50.972;7.072;2022-11-15T14:34:39;1.97;;;1.87;;
8139;SDS011;4111;50.972;7.072;2022-11-15T14:37:10;2.03;;;1.70;;
8139;SDS011;4111;50.972;7.072;2022-11-15T14:39:48;2.57;;;1.70;;
8139;SDS011;4111;50.972;7.072;2022-11-15T14:42:16;2.10;;;2.00;;
8139;SDS011;4111;50.972;7.072;2022-11-15T14:44:42;1.80;;;1.70;;
8139;SDS011;4111;50.972;7.072;2022-11-15T14:47:11;2.47;;;1.63;;
8139;SDS011;4111;50.972;7.072;2022-11-15T14:49:37;2.73;;;1.80;;
8139;SDS011;4111;50.972;7.072;2022-11-15T14:52:07;1.80;;;1.70;;
8139;SDS011;4111;50.972;7.072;2022-11-15T14:54:57;3.67;;;1.77;;
8139;SDS011;4111;50.972;7.072;2022-11-15T14:57:25;1.80;;;1.43;;
8139;SDS011;4111;50.972;7.072;2022-11-15T14:59:51;2.63;;;1.90;;
8139;SDS011;4111;50.972;7.072;2022-11-15T15:02:22;1.87;;;1.60;;
8139;SDS011;4111;50.972;7.072;2022-11-15T15:04:51;3.43;;;1.70;;
8139;SDS011;4111;50.972;7.072;2022-11-15T15:07:17;2.53;;;1.50;;
8139;SDS011;4111;50.972;7.072;2022-11-15T15:09:45;2.00;;;1.80;;
8139;SDS011;4111;50.972;7.072;2022-11-15T15:12:16;3.20;;;1.60;;
8139;SDS011;4111;50.972;7.072;2022-11-15T15:14:45;2.30;;;2.10;;
8139;SDS011;4111;50.972;7.072;2022-11-15T15:17:12;2.90;;;1.93;;
8139;SDS011;4111;50.972;7.072;2022-11-15T15:19:39;1.70;;;1.60;;
8139;SDS011;4111;50.972;7.072;2022-11-15T15:22:05;2.00;;;1.60;;
8139;SDS011;4111;50.972;7.072;2022-11-15T15:24:35;2.13;;;1.40;;
8139;SDS011;4111;50.972;7.072;2022-11-15T15:27:01;2.40;;;1.60;;
8139;SDS011;4111;50.972;7.072;2022-11-15T15:29:28;1.90;;;1.80;;
8139;SDS011;4111;50.972;7.072;2022-11-15T15:31:54;4.53;;;1.30;;
8139;SDS011;4111;50.972;7.072;2022-11-15T15:34:20;3.00;;;1.53;;
8139;SDS011;4111;50.972;7.072;2022-11-15T15:36:47;3.50;;;1.50;;
8139;SDS011;4111;50.972;7.072;2022-11-15T15:39:13;3.50;;;1.60;;
8139;SDS011;4111;50.972;7.072;2022-11-15T15:41:40;1.50;;;1.40;;
8139;SDS011;4111;50.972;7.072;2022-11-15T15:44:06;1.83;;;1.57;;
8139;SDS011;4111;50.972;7.072;2022-11-15T15:46:32;1.90;;;1.70;;
8139;SDS011;4111;50.972;7.072;2022-11-15T15:49:00;2.40;;;1.47;;
8139;SDS011;4111;50.972;7.072;2022-11-15T15:51:26;3.70;;;1.73;;
8139;SDS011;4111;50.972;7.072;2022-11-15T15:53:52;2.20;;;1.47;;
8139;SDS011;4111;50.972;7.072;2022-11-15T15:56:23;1.70;;;1.60;;
8139;SDS011;4111;50.972;7.072;2022-11-15T15:58:49;3.50;;;1.43;;
8139;SDS011;4111;50.972;7.072;2022-11-15T16:01:16;3.37;;;2.10;;
8139;SDS011;4111;50.972;7.072;2022-11-15T16:03:42;2.97;;;1.87;;
8139;SDS011;4111;50.972;7.072;2022-11-15T16:09:05;3.73;;;1.80;;
8139;SDS011;4111;50.972;7.072;2022-11-15T16:11:43;3.63;;;1.90;;
8139;SDS011;4111;50.972;7.072;2022-11-15T16:14:11;2.77;;;2.03;;
8139;SDS011;4111;50.972;7.072;2022-11-15T16:16:38;1.90;;;1.70;;
8139;SDS011;4111;50.972;7.072;2022-11-15T16:19:04;2.23;;;1.70;;
8139;SDS011;4111;50.972;7.072;2022-11-15T16:21:31;2.73;;;1.73;;
8139;SDS011;4111;50.972;7.072;2022-11-15T16:23:57;1.60;;;1.50;;
8139;SDS011;4111;50.972;7.072;2022-11-15T16:26:25;2.13;;;1.60;;
8139;SDS011;4111;50.972;7.072;2022-11-15T16:28:53;1.60;;;1.50;;
8139;SDS011;4111;50.972;7.072;2022-11-15T16:31:20;1.73;;;1.63;;
8139;SDS011;4111;50.972;7.072;2022-11-15T16:33:49;3.30;;;1.70;;
8139;SDS011;4111;50.972;7.072;2022-11-15T16:36:21;2.50;;;1.60;;
8139;SDS011;4111;50.972;7.072;2022-11-15T16:38:55;2.10;;;1.63;;
8139;SDS011;4111;50.972;7.072;2022-11-15T16:41:21;4.00;;;1.93;;
8139;SDS011;4111;50.972;7.072;2022-11-15T16:43:48;2.60;;;1.80;;
8139;SDS011;4111;50.972;7.072;2022-11-15T16:46:19;2.43;;;1.77;;
8139;SDS011;4111;50.972;7.072;2022-11-15T16:48:47;2.23;;;1.63;;
8139;SDS011;4111;50.972;7.072;2022-11-15T16:51:14;1.70;;;1.60;;
8139;SDS011;4111;50.972;7.072;2022-11-15T16:53:41;2.00;;;1.80;;
8139;SDS011;4111;50.972;7.072;2022-11-15T16:56:27;2.87;;;1.80;;
8139;SDS011;4111;50.972;7.072;2022-11-15T16:58:55;2.97;;;1.60;;
8139;SDS011;4111;50.972;7.072;2022-11-15T17:01:27;1.50;;;1.40;;
8139;SDS011;4111;50.972;7.072;2022-11-15T17:03:55;1.90;;;1.80;;
8139;SDS011;4111;50.972;7.072;2022-11-15T17:06:22;1.50;;;1.40;;
8139;SDS011;4111;50.972;7.072;2022-11-15T17:08:50;4.23;;;1.80;;
8139;SDS011;4111;50.972;7.072;2022-11-15T17:11:18;1.77;;;1.67;;
8139;SDS011;4111;50.972;7.072;2022-11-15T17:13:46;3.13;;;1.47;;
8139;SDS011;4111;50.972;7.072;2022-11-15T17:16:15;1.70;;;1.60;;
8139;SDS011;4111;50.972;7.072;2022-11-15T17:18:43;3.27;;;1.80;;
8139;SDS011;4111;50.972;7.072;2022-11-15T17:21:14;1.67;;;1.57;;
8139;SDS011;4111;50.972;7.072;2022-11-15T17:23:42;1.47;;;1.30;;
8139;SDS011;4111;50.972;7.072;2022-11-15T17:26:10;3.20;;;3.00;;
8139;SDS011;4111;50.972;7.072;2022-11-15T17:28:57;2.20;;;2.00;;
8139;SDS011;4111;50.972;7.072;2022-11-15T17:31:25;1.73;;;1.60;;
8139;SDS011;4111;50.972;7.072;2022-11-15T17:33:52;2.47;;;2.00;;
8139;SDS011;4111;50.972;7.072;2022-11-15T17:36:19;3.40;;;2.10;;
8139;SDS011;4111;50.972;7.072;2022-11-15T17:38:46;2.40;;;1.90;;
8139;SDS011;4111;50.972;7.072;2022-11-15T17:41:24;2.30;;;2.10;;